sensor_id;sensor_type;location;lat;lon;timestamp;P1;durP1;ratioP1;P2;durP2;ratioP2
7501;SDS011;3792;47.740;7.606;2023-05-24T00:01:51;14.67;;;9.57;;
7501;SDS011;3792;47.740;7.606;2023-05-24T00:04:20;14.37;;;10.20;;
7501;SDS011;3792;47.740;7.606;2023-05-24T00:06:49;15.57;;;9.77;;
7501;SDS011;3792;47.740;7.606;2023-05-24T00:09:18;12.40;;;9.43;;
7501;SDS011;3792;47.740;7.606;2023-05-24T00:11:47;13.27;;;9.23;;
7501;SDS011;3792;47.740;7.606;2023-05-24T00:14:14;11.30;;;8.93;;
7501;SDS011;3792;47.740;7.606;2023-05-24T00:16:41;11.27;;;8.57;;
7501;SDS011;3792;47.740;7.606;2023-05-24T00:19:10;12.67;;;8.83;;
7501;SDS011;3792;47.740;7.606;2023-05-24T00:21:42;11.47;;;8.90;;
7501;SDS011;3792;47.740;7.606;2023-05-24T00:24:09;12.70;;;9.47;;
7501;SDS011;3792;47.740;7.606;2023-05-24T00:26:37;13.43;;;8.73;;
7501;SDS011;3792;47.740;7.606;2023-05-24T00:29:05;11.30;;;8.70;;
7501;SDS011;3792;47.740;7.606;2023-05-24T00:31:33;11.53;;;8.47;;
7501;SDS011;3792;47.740;7.606;2023-05-24T00:34:00;11.33;;;8.87;;
7501;SDS011;3792;47.740;7.606;2023-05-24T00:36:27;13.33;;;8.33;;
7501;SDS011;3792;47.740;7.606;2023-05-24T00:38:55;10.83;;;8.93;;
7501;SDS011;3792;47.740;7.606;2023-05-24T00:41:22;9.93;;;8.30;;
7501;SDS011;3792;47.740;7.606;2023-05-24T00:43:49;13.03;;;8.40;;
7501;SDS011;3792;47.740;7.606;2023-05-24T00:46:18;11.53;;;7.70;;
7501;SDS011;3792;47.740;7.606;2023-05-24T00:48:47;11.67;;;8.30;;
7501;SDS011;3792;47.740;7.606;2023-05-24T00:51:14;13.57;;;8.20;;
7501;SDS011;3792;47.740;7.606;2023-05-24T00:53:43;9.60;;;8.60;;
7501;SDS011;3792;47.740;7.606;2023-05-24T00:56:12;9.67;;;7.67;;
7501;SDS011;3792;47.740;7.606;2023-05-24T00:58:40;12.20;;;8.90;;
7501;SDS011;3792;47.740;7.606;2023-05-24T01:01:07;8.93;;;7.47;;
7501;SDS011;3792;47.740;7.606;2023-05-24T01:03:35;10.77;;;7.47;;
7501;SDS011;3792;47.740;7.606;2023-05-24T01:06:04;12.93;;;7.73;;
7501;SDS011;3792;47.740;7.606;2023-05-24T01:08:42;10.13;;;7.90;;
7501;SDS011;3792;47.740;7.606;2023-05-24T01:11:16;9.83;;;7.23;;
7501;SDS011;3792;47.740;7.606;2023-05-24T01:13:51;9.03;;;7.27;;
7501;SDS011;3792;47.740;7.606;2023-05-24T01:16:24;9.57;;;7.30;;
7501;SDS011;3792;47.740;7.606;2023-05-24T01:18:59;12.80;;;8.03;;
7501;SDS011;3792;47.740;7.606;2023-05-24T01:21:34;9.93;;;7.77;;
7501;SDS011;3792;47.740;7.606;2023-05-24T01:24:13;8.03;;;6.47;;
7501;SDS011;3792;47.740;7.606;2023-05-24T01:29:37;13.77;;;6.90;;
7501;SDS011;3792;47.740;7.606;2023-05-24T01:32:05;11.97;;;7.20;;
7501;SDS011;3792;47.740;7.606;2023-05-24T01:34:32;10.90;;;7.50;;
7501;SDS011;3792;47.740;7.606;2023-05-24T01:36:59;9.37;;;7.20;;
7501;SDS011;3792;47.740;7.606;2023-05-24T01:39:27;7.77;;;6.73;;
7501;SDS011;3792;47.740;7.606;2023-05-24T01:41:58;9.47;;;7.70;;
7501;SDS011;3792;47.740;7.606;2023-05-24T01:44:35;8.30;;;7.50;;
7501;SDS011;3792;47.740;7.606;2023-05-24T01:47:10;11.70;;;7.50;;
7501;SDS011;3792;47.740;7.606;2023-05-24T01:49:48;8.67;;;6.93;;
7501;SDS011;3792;47.740;7.606;2023-05-24T01:52:19;11.53;;;7.43;;
7501;SDS011;3792;47.740;7.606;2023-05-24T01:54:50;11.07;;;7.50;;
7501;SDS011;3792;47.740;7.606;2023-05-24T01:57:18;11.10;;;6.87;;
7501;SDS011;3792;47.740;7.606;2023-05-24T01:59:47;10.07;;;7.77;;
7501;SDS011;3792;47.740;7.606;2023-05-24T02:02:15;7.43;;;6.60;;
7501;SDS011;3792;47.740;7.606;2023-05-24T02:04:43;9.80;;;7.10;;
7501;SDS011;3792;47.740;7.606;2023-05-24T02:07:10;8.27;;;6.10;;
7501;SDS011;3792;47.740;7.606;2023-05-24T02:09:37;10.33;;;6.33;;
7501;SDS011;3792;47.740;7.606;2023-05-24T02:12:04;8.83;;;6.67;;
7501;SDS011;3792;47.740;7.606;2023-05-24T02:14:32;8.77;;;6.93;;
7501;SDS011;3792;47.740;7.606;2023-05-24T02:17:03;9.63;;;6.63;;
7501;SDS011;3792;47.740;7.606;2023-05-24T02:19:30;8.90;;;6.40;;
7501;SDS011;3792;47.740;7.606;2023-05-24T02:21:58;9.97;;;6.93;;
7501;SDS011;3792;47.740;7.606;2023-05-24T02:24:26;9.90;;;6.80;;
7501;SDS011;3792;47.740;7.606;2023-05-24T02:26:53;7.37;;;6.47;;
7501;SDS011;3792;47.740;7.606;2023-05-24T02:29:20;10.23;;;6.37;;
7501;SDS011;3792;47.740;7.606;2023-05-24T02:31:48;8.33;;;6.40;;
7501;SDS011;3792;47.740;7.606;2023-05-24T02:34:20;9.23;;;6.60;;
7501;SDS011;3792;47.740;7.606;2023-05-24T02:36:48;7.73;;;6.50;;
7501;SDS011;3792;47.740;7.606;2023-05-24T02:39:15;9.40;;;7.40;;
7501;SDS011;3792;47.740;7.606;2023-05-24T02:41:42;11.40;;;7.00;;
7501;SDS011;3792;47.740;7.606;2023-05-24T02:44:09;11.37;;;7.43;;
7501;SDS011;3792;47.740;7.606;2023-05-24T02:46:36;11.30;;;6.93;;
7501;SDS011;3792;47.740;7.606;2023-05-24T02:49:03;10.60;;;7.00;;
7501;SDS011;3792;47.740;7.606;2023-05-24T02:51:32;8.70;;;6.80;;
7501;SDS011;3792;47.740;7.606;2023-05-24T02:53:59;9.10;;;7.03;;
7501;SDS011;3792;47.740;7.606;2023-05-24T02:56:26;7.80;;;6.30;;
7501;SDS011;3792;47.740;7.606;2023-05-24T02:58:53;7.47;;;6.73;;
7501;SDS011;3792;47.740;7.606;2023-05-24T03:01:20;8.60;;;7.07;;
7501;SDS011;3792;47.740;7.606;2023-05-24T03:03:47;10.70;;;6.63;;
7501;SDS011;3792;47.740;7.606;2023-05-24T03:06:14;7.87;;;6.20;;
7501;SDS011;3792;47.740;7.606;2023-05-24T03:08:43;9.10;;;6.13;;
7501;SDS011;3792;47.740;7.606;2023-05-24T03:11:10;10.40;;;7.07;;
7501;SDS011;3792;47.740;7.606;2023-05-24T03:13:37;8.83;;;6.30;;
7501;SDS011;3792;47.740;7.606;2023-05-24T03:16:04;10.83;;;6.83;;
7501;SDS011;3792;47.740;7.606;2023-05-24T03:18:31;6.97;;;6.37;;
7501;SDS011;3792;47.740;7.606;2023-05-24T03:20:58;9.60;;;6.50;;
7501;SDS011;3792;47.740;7.606;2023-05-24T03:23:25;7.43;;;6.03;;
7501;SDS011;3792;47.740;7.606;2023-05-24T03:25:54;7.97;;;5.77;;
7501;SDS011;3792;47.740;7.606;2023-05-24T03:28:21;7.27;;;6.57;;
7501;SDS011;3792;47.740;7.606;2023-05-24T03:30:48;8.70;;;7.03;;
7501;SDS011;3792;47.740;7.606;2023-05-24T03:33:15;9.37;;;6.80;;
7501;SDS011;3792;47.740;7.606;2023-05-24T03:35:42;9.00;;;5.80;;
7501;SDS011;3792;47.740;7.606;2023-05-24T03:38:09;9.33;;;6.37;;
7501;SDS011;3792;47.740;7.606;2023-05-24T03:40:36;9.50;;;6.83;;
7501;SDS011;3792;47.740;7.606;2023-05-24T03:43:05;9.80;;;6.30;;
7501;SDS011;3792;47.740;7.606;2023-05-24T03:45:32;10.77;;;6.10;;
7501;SDS011;3792;47.740;7.606;2023-05-24T03:47:59;7.27;;;6.13;;
7501;SDS011;3792;47.740;7.606;2023-05-24T03:50:26;9.27;;;6.30;;
7501;SDS011;3792;47.740;7.606;2023-05-24T03:52:53;6.97;;;5.70;;
7501;SDS011;3792;47.740;7.606;2023-05-24T03:55:20;7.83;;;6.00;;
7501;SDS011;3792;47.740;7.606;2023-05-24T03:57:47;7.50;;;5.93;;
7501;SDS011;3792;47.740;7.606;2023-05-24T04:00:15;12.37;;;6.43;;
7501;SDS011;3792;47.740;7.606;2023-05-24T04:02:43;10.27;;;5.77;;
7501;SDS011;3792;47.740;7.606;2023-05-24T04:05:10;8.37;;;5.80;;
7501;SDS011;3792;47.740;7.606;2023-05-24T04:07:38;7.73;;;6.53;;
7501;SDS011;3792;47.740;7.606;2023-05-24T04:10:06;11.23;;;5.97;;
7501;SDS011;3792;47.740;7.606;2023-05-24T04:12:34;6.40;;;5.80;;
7501;SDS011;3792;47.740;7.606;2023-05-24T04:15:01;9.63;;;5.93;;
7501;SDS011;3792;47.740;7.606;2023-05-24T04:17:30;9.03;;;5.50;;
7501;SDS011;3792;47.740;7.606;2023-05-24T04:19:58;8.67;;;5.57;;
7501;SDS011;3792;47.740;7.606;2023-05-24T04:22:26;6.37;;;5.13;;
7501;SDS011;3792;47.740;7.606;2023-05-24T04:24:53;7.37;;;5.97;;
7501;SDS011;3792;47.740;7.606;2023-05-24T04:27:20;9.93;;;6.23;;
7501;SDS011;3792;47.740;7.606;2023-05-24T04:29:50;8.87;;;5.70;;
7501;SDS011;3792;47.740;7.606;2023-05-24T04:32:17;9.30;;;5.97;;
7501;SDS011;3792;47.740;7.606;2023-05-24T04:34:45;7.70;;;5.80;;
7501;SDS011;3792;47.740;7.606;2023-05-24T04:37:12;8.30;;;5.60;;
7501;SDS011;3792;47.740;7.606;2023-05-24T04:39:41;8.37;;;5.33;;
7501;SDS011;3792;47.740;7.606;2023-05-24T04:42:08;11.10;;;5.50;;
7501;SDS011;3792;47.740;7.606;2023-05-24T04:44:35;7.33;;;5.10;;
7501;SDS011;3792;47.740;7.606;2023-05-24T04:47:02;7.50;;;4.93;;
7501;SDS011;3792;47.740;7.606;2023-05-24T04:49:30;9.07;;;5.90;;
7501;SDS011;3792;47.740;7.606;2023-05-24T04:51:58;8.10;;;5.23;;
7501;SDS011;3792;47.740;7.606;2023-05-24T04:54:25;9.70;;;5.13;;
7501;SDS011;3792;47.740;7.606;2023-05-24T04:56:52;7.40;;;4.87;;
7501;SDS011;3792;47.740;7.606;2023-05-24T04:59:19;7.10;;;4.67;;
7501;SDS011;3792;47.740;7.606;2023-05-24T05:01:46;7.10;;;5.00;;
7501;SDS011;3792;47.740;7.606;2023-05-24T05:04:14;8.50;;;4.93;;
7501;SDS011;3792;47.740;7.606;2023-05-24T05:06:41;8.10;;;5.03;;
7501;SDS011;3792;47.740;7.606;2023-05-24T05:09:10;8.90;;;5.77;;
7501;SDS011;3792;47.740;7.606;2023-05-24T05:11:39;7.67;;;5.30;;
7501;SDS011;3792;47.740;7.606;2023-05-24T05:14:06;7.47;;;5.13;;
7501;SDS011;3792;47.740;7.606;2023-05-24T05:16:34;8.03;;;5.20;;
7501;SDS011;3792;47.740;7.606;2023-05-24T05:19:02;6.90;;;4.53;;
7501;SDS011;3792;47.740;7.606;2023-05-24T05:21:30;7.20;;;5.23;;
7501;SDS011;3792;47.740;7.606;2023-05-24T05:23:58;10.57;;;5.90;;
7501;SDS011;3792;47.740;7.606;2023-05-24T05:26:27;7.70;;;4.83;;
7501;SDS011;3792;47.740;7.606;2023-05-24T05:28:54;8.37;;;5.20;;
7501;SDS011;3792;47.740;7.606;2023-05-24T05:31:22;8.33;;;5.20;;
7501;SDS011;3792;47.740;7.606;2023-05-24T05:33:49;8.43;;;5.40;;
7501;SDS011;3792;47.740;7.606;2023-05-24T05:36:17;7.77;;;5.30;;
7501;SDS011;3792;47.740;7.606;2023-05-24T05:38:44;7.60;;;5.10;;
7501;SDS011;3792;47.740;7.606;2023-05-24T05:41:11;7.07;;;5.30;;
7501;SDS011;3792;47.740;7.606;2023-05-24T05:43:40;9.83;;;5.50;;
7501;SDS011;3792;47.740;7.606;2023-05-24T05:46:07;7.97;;;4.50;;
7501;SDS011;3792;47.740;7.606;2023-05-24T05:48:35;8.40;;;5.10;;
7501;SDS011;3792;47.740;7.606;2023-05-24T05:51:02;8.10;;;5.80;;
7501;SDS011;3792;47.740;7.606;2023-05-24T05:53:29;7.67;;;5.03;;
7501;SDS011;3792;47.740;7.606;2023-05-24T05:55:58;5.93;;;4.53;;
7501;SDS011;3792;47.740;7.606;2023-05-24T05:58:25;10.77;;;5.13;;
7501;SDS011;3792;47.740;7.606;2023-05-24T06:00:54;6.17;;;5.23;;
7501;SDS011;3792;47.740;7.606;2023-05-24T06:03:21;5.13;;;4.53;;
7501;SDS011;3792;47.740;7.606;2023-05-24T06:05:48;8.70;;;5.57;;
7501;SDS011;3792;47.740;7.606;2023-05-24T06:08:15;10.03;;;5.20;;
7501;SDS011;3792;47.740;7.606;2023-05-24T06:10:42;11.00;;;5.03;;
7501;SDS011;3792;47.740;7.606;2023-05-24T06:13:09;7.60;;;5.07;;
7501;SDS011;3792;47.740;7.606;2023-05-24T06:15:36;9.23;;;5.60;;
7501;SDS011;3792;47.740;7.606;2023-05-24T06:18:05;8.23;;;4.93;;
7501;SDS011;3792;47.740;7.606;2023-05-24T06:20:32;8.73;;;4.93;;
7501;SDS011;3792;47.740;7.606;2023-05-24T06:23:00;8.33;;;4.97;;
7501;SDS011;3792;47.740;7.606;2023-05-24T06:25:27;8.73;;;4.80;;
7501;SDS011;3792;47.740;7.606;2023-05-24T06:27:55;7.13;;;4.90;;
7501;SDS011;3792;47.740;7.606;2023-05-24T06:30:22;7.87;;;5.00;;
7501;SDS011;3792;47.740;7.606;2023-05-24T06:32:50;7.83;;;4.80;;
7501;SDS011;3792;47.740;7.606;2023-05-24T06:35:18;9.83;;;5.13;;
7501;SDS011;3792;47.740;7.606;2023-05-24T06:37:46;11.03;;;5.80;;
7501;SDS011;3792;47.740;7.606;2023-05-24T06:40:13;9.77;;;5.70;;
7501;SDS011;3792;47.740;7.606;2023-05-24T06:42:40;8.27;;;5.60;;
7501;SDS011;3792;47.740;7.606;2023-05-24T06:45:07;13.33;;;6.07;;
7501;SDS011;3792;47.740;7.606;2023-05-24T06:47:35;8.70;;;5.30;;
7501;SDS011;3792;47.740;7.606;2023-05-24T06:50:02;9.13;;;5.53;;
7501;SDS011;3792;47.740;7.606;2023-05-24T06:52:30;7.83;;;5.30;;
7501;SDS011;3792;47.740;7.606;2023-05-24T06:54:57;7.10;;;5.10;;
7501;SDS011;3792;47.740;7.606;2023-05-24T06:57:25;11.20;;;5.20;;
7501;SDS011;3792;47.740;7.606;2023-05-24T06:59:52;11.00;;;4.93;;
7501;SDS011;3792;47.740;7.606;2023-05-24T07:02:19;10.43;;;5.80;;
7501;SDS011;3792;47.740;7.606;2023-05-24T07:04:50;6.13;;;5.27;;
7501;SDS011;3792;47.740;7.606;2023-05-24T07:07:17;6.07;;;4.73;;
7501;SDS011;3792;47.740;7.606;2023-05-24T07:09:46;8.30;;;5.60;;
7501;SDS011;3792;47.740;7.606;2023-05-24T07:12:13;10.63;;;5.67;;
7501;SDS011;3792;47.740;7.606;2023-05-24T07:14:40;10.57;;;4.63;;
7501;SDS011;3792;47.740;7.606;2023-05-24T07:17:07;11.93;;;4.93;;
7501;SDS011;3792;47.740;7.606;2023-05-24T07:19:35;9.03;;;5.67;;
7501;SDS011;3792;47.740;7.606;2023-05-24T07:22:02;9.57;;;5.10;;
7501;SDS011;3792;47.740;7.606;2023-05-24T07:24:29;12.10;;;5.27;;
7501;SDS011;3792;47.740;7.606;2023-05-24T07:26:57;7.60;;;4.93;;
7501;SDS011;3792;47.740;7.606;2023-05-24T07:29:24;9.27;;;4.60;;
7501;SDS011;3792;47.740;7.606;2023-05-24T07:31:52;10.00;;;5.27;;
7501;SDS011;3792;47.740;7.606;2023-05-24T07:34:20;12.60;;;5.93;;
7501;SDS011;3792;47.740;7.606;2023-05-24T07:36:48;12.60;;;5.20;;
7501;SDS011;3792;47.740;7.606;2023-05-24T07:39:15;8.60;;;5.20;;
7501;SDS011;3792;47.740;7.606;2023-05-24T07:41:42;12.07;;;5.67;;
7501;SDS011;3792;47.740;7.606;2023-05-24T07:44:10;7.20;;;4.73;;
7501;SDS011;3792;47.740;7.606;2023-05-24T07:46:39;8.77;;;5.50;;
7501;SDS011;3792;47.740;7.606;2023-05-24T07:49:06;7.03;;;5.10;;
7501;SDS011;3792;47.740;7.606;2023-05-24T07:51:33;13.33;;;5.60;;
7501;SDS011;3792;47.740;7.606;2023-05-24T07:54:00;8.77;;;5.63;;
7501;SDS011;3792;47.740;7.606;2023-05-24T07:56:27;14.27;;;5.60;;
7501;SDS011;3792;47.740;7.606;2023-05-24T07:58:55;13.53;;;6.30;;
7501;SDS011;3792;47.740;7.606;2023-05-24T08:01:29;9.13;;;5.20;;
7501;SDS011;3792;47.740;7.606;2023-05-24T08:03:56;11.73;;;5.83;;
7501;SDS011;3792;47.740;7.606;2023-05-24T08:06:23;8.83;;;5.67;;
7501;SDS011;3792;47.740;7.606;2023-05-24T08:08:50;10.40;;;5.47;;
7501;SDS011;3792;47.740;7.606;2023-05-24T08:11:17;7.67;;;4.80;;
7501;SDS011;3792;47.740;7.606;2023-05-24T08:13:45;9.63;;;5.30;;
7501;SDS011;3792;47.740;7.606;2023-05-24T08:16:12;12.47;;;6.00;;
7501;SDS011;3792;47.740;7.606;2023-05-24T08:18:40;14.63;;;5.90;;
7501;SDS011;3792;47.740;7.606;2023-05-24T08:21:07;12.07;;;6.37;;
7501;SDS011;3792;47.740;7.606;2023-05-24T08:23:34;12.00;;;5.23;;
7501;SDS011;3792;47.740;7.606;2023-05-24T08:26:01;9.77;;;4.97;;
7501;SDS011;3792;47.740;7.606;2023-05-24T08:28:28;10.23;;;5.83;;
7501;SDS011;3792;47.740;7.606;2023-05-24T08:30:55;10.87;;;5.60;;
7501;SDS011;3792;47.740;7.606;2023-05-24T08:33:23;13.83;;;5.90;;
7501;SDS011;3792;47.740;7.606;2023-05-24T08:35:51;16.17;;;5.57;;
7501;SDS011;3792;47.740;7.606;2023-05-24T08:38:18;10.50;;;5.77;;
7501;SDS011;3792;47.740;7.606;2023-05-24T08:40:46;13.83;;;5.33;;
7501;SDS011;3792;47.740;7.606;2023-05-24T08:43:13;11.93;;;5.13;;
7501;SDS011;3792;47.740;7.606;2023-05-24T08:45:41;11.33;;;5.13;;
7501;SDS011;3792;47.740;7.606;2023-05-24T08:48:09;10.47;;;6.13;;
7501;SDS011;3792;47.740;7.606;2023-05-24T08:50:37;14.57;;;5.77;;
7501;SDS011;3792;47.740;7.606;2023-05-24T08:53:06;7.83;;;5.33;;
7501;SDS011;3792;47.740;7.606;2023-05-24T08:55:35;9.80;;;5.50;;
7501;SDS011;3792;47.740;7.606;2023-05-24T08:58:03;10.70;;;6.23;;
7501;SDS011;3792;47.740;7.606;2023-05-24T09:00:31;20.37;;;6.00;;
7501;SDS011;3792;47.740;7.606;2023-05-24T09:02:58;9.73;;;5.63;;
7501;SDS011;3792;47.740;7.606;2023-05-24T09:05:26;7.10;;;5.20;;
7501;SDS011;3792;47.740;7.606;2023-05-24T09:07:55;11.13;;;6.10;;
7501;SDS011;3792;47.740;7.606;2023-05-24T09:10:26;11.77;;;5.20;;
7501;SDS011;3792;47.740;7.606;2023-05-24T09:12:55;9.97;;;5.33;;
7501;SDS011;3792;47.740;7.606;2023-05-24T09:15:23;9.27;;;5.83;;
7501;SDS011;3792;47.740;7.606;2023-05-24T09:17:50;10.43;;;6.03;;
7501;SDS011;3792;47.740;7.606;2023-05-24T09:20:17;11.93;;;6.13;;
7501;SDS011;3792;47.740;7.606;2023-05-24T09:22:49;9.23;;;5.53;;
7501;SDS011;3792;47.740;7.606;2023-05-24T09:25:17;8.00;;;5.20;;
7501;SDS011;3792;47.740;7.606;2023-05-24T09:27:49;10.20;;;5.50;;
7501;SDS011;3792;47.740;7.606;2023-05-24T09:30:17;12.33;;;5.87;;
7501;SDS011;3792;47.740;7.606;2023-05-24T09:32:54;10.97;;;5.37;;
7501;SDS011;3792;47.740;7.606;2023-05-24T09:35:22;9.60;;;4.60;;
7501;SDS011;3792;47.740;7.606;2023-05-24T09:37:52;10.33;;;5.43;;
7501;SDS011;3792;47.740;7.606;2023-05-24T09:40:21;10.40;;;5.70;;
7501;SDS011;3792;47.740;7.606;2023-05-24T09:43:02;6.17;;;4.50;;
7501;SDS011;3792;47.740;7.606;2023-05-24T09:45:40;8.93;;;5.20;;
7501;SDS011;3792;47.740;7.606;2023-05-24T09:48:11;11.87;;;5.30;;
7501;SDS011;3792;47.740;7.606;2023-05-24T09:50:39;10.17;;;5.60;;
7501;SDS011;3792;47.740;7.606;2023-05-24T09:53:06;15.33;;;4.70;;
7501;SDS011;3792;47.740;7.606;2023-05-24T09:55:35;9.37;;;5.10;;
7501;SDS011;3792;47.740;7.606;2023-05-24T09:58:05;9.13;;;5.43;;
7501;SDS011;3792;47.740;7.606;2023-05-24T10:00:33;11.57;;;5.00;;
7501;SDS011;3792;47.740;7.606;2023-05-24T10:03:04;10.70;;;5.23;;
7501;SDS011;3792;47.740;7.606;2023-05-24T10:05:32;10.17;;;5.43;;
7501;SDS011;3792;47.740;7.606;2023-05-24T10:08:00;10.13;;;5.17;;
7501;SDS011;3792;47.740;7.606;2023-05-24T10:10:29;15.87;;;5.77;;
7501;SDS011;3792;47.740;7.606;2023-05-24T10:12:58;11.73;;;5.57;;
7501;SDS011;3792;47.740;7.606;2023-05-24T10:15:28;18.50;;;5.97;;
7501;SDS011;3792;47.740;7.606;2023-05-24T10:17:55;12.20;;;5.67;;
7501;SDS011;3792;47.740;7.606;2023-05-24T10:20:23;9.77;;;4.90;;
7501;SDS011;3792;47.740;7.606;2023-05-24T10:22:51;8.83;;;5.20;;
7501;SDS011;3792;47.740;7.606;2023-05-24T10:25:20;8.87;;;5.07;;
7501;SDS011;3792;47.740;7.606;2023-05-24T10:27:50;14.63;;;5.57;;
7501;SDS011;3792;47.740;7.606;2023-05-24T10:30:23;19.40;;;5.73;;
7501;SDS011;3792;47.740;7.606;2023-05-24T10:32:58;9.80;;;4.83;;
7501;SDS011;3792;47.740;7.606;2023-05-24T10:35:28;9.77;;;5.40;;
7501;SDS011;3792;47.740;7.606;2023-05-24T10:37:55;14.30;;;5.77;;
7501;SDS011;3792;47.740;7.606;2023-05-24T10:40:23;9.20;;;4.63;;
7501;SDS011;3792;47.740;7.606;2023-05-24T10:42:51;11.23;;;5.90;;
7501;SDS011;3792;47.740;7.606;2023-05-24T10:45:29;8.57;;;5.17;;
7501;SDS011;3792;47.740;7.606;2023-05-24T10:48:01;8.57;;;5.43;;
7501;SDS011;3792;47.740;7.606;2023-05-24T10:50:35;11.40;;;5.80;;
7501;SDS011;3792;47.740;7.606;2023-05-24T10:53:11;12.27;;;5.30;;
7501;SDS011;3792;47.740;7.606;2023-05-24T10:55:50;7.90;;;4.60;;
7501;SDS011;3792;47.740;7.606;2023-05-24T10:58:21;11.13;;;5.80;;
7501;SDS011;3792;47.740;7.606;2023-05-24T11:00:52;10.33;;;4.93;;
7501;SDS011;3792;47.740;7.606;2023-05-24T11:03:21;13.70;;;5.17;;
7501;SDS011;3792;47.740;7.606;2023-05-24T11:05:50;9.70;;;5.97;;
7501;SDS011;3792;47.740;7.606;2023-05-24T11:08:21;10.27;;;5.73;;
7501;SDS011;3792;47.740;7.606;2023-05-24T11:10:50;14.13;;;5.90;;
7501;SDS011;3792;47.740;7.606;2023-05-24T11:13:28;10.20;;;5.80;;
7501;SDS011;3792;47.740;7.606;2023-05-24T11:15:56;12.50;;;6.17;;
7501;SDS011;3792;47.740;7.606;2023-05-24T11:18:25;9.30;;;5.33;;
7501;SDS011;3792;47.740;7.606;2023-05-24T11:20:52;12.77;;;6.40;;
7501;SDS011;3792;47.740;7.606;2023-05-24T11:23:21;12.73;;;6.47;;
7501;SDS011;3792;47.740;7.606;2023-05-24T11:25:48;12.87;;;6.80;;
7501;SDS011;3792;47.740;7.606;2023-05-24T11:28:16;13.37;;;7.00;;
7501;SDS011;3792;47.740;7.606;2023-05-24T11:30:44;13.10;;;6.10;;
7501;SDS011;3792;47.740;7.606;2023-05-24T11:33:12;14.07;;;5.70;;
7501;SDS011;3792;47.740;7.606;2023-05-24T11:35:41;12.33;;;6.17;;
7501;SDS011;3792;47.740;7.606;2023-05-24T11:38:09;11.47;;;6.23;;
7501;SDS011;3792;47.740;7.606;2023-05-24T11:40:37;15.10;;;6.47;;
7501;SDS011;3792;47.740;7.606;2023-05-24T11:43:08;11.80;;;5.70;;
7501;SDS011;3792;47.740;7.606;2023-05-24T11:45:38;12.90;;;6.63;;
7501;SDS011;3792;47.740;7.606;2023-05-24T11:48:06;16.77;;;6.13;;
7501;SDS011;3792;47.740;7.606;2023-05-24T11:50:36;18.43;;;6.57;;
7501;SDS011;3792;47.740;7.606;2023-05-24T11:53:08;13.37;;;6.23;;
7501;SDS011;3792;47.740;7.606;2023-05-24T11:55:36;14.47;;;6.73;;
7501;SDS011;3792;47.740;7.606;2023-05-24T11:58:05;14.33;;;6.03;;
7501;SDS011;3792;47.740;7.606;2023-05-24T12:00:36;11.60;;;5.83;;
7501;SDS011;3792;47.740;7.606;2023-05-24T12:03:04;11.10;;;5.80;;
7501;SDS011;3792;47.740;7.606;2023-05-24T12:05:33;15.20;;;6.30;;
7501;SDS011;3792;47.740;7.606;2023-05-24T12:08:01;12.87;;;5.67;;
7501;SDS011;3792;47.740;7.606;2023-05-24T12:10:32;13.13;;;6.13;;
7501;SDS011;3792;47.740;7.606;2023-05-24T12:13:01;9.53;;;5.67;;
7501;SDS011;3792;47.740;7.606;2023-05-24T12:15:28;15.00;;;6.20;;
7501;SDS011;3792;47.740;7.606;2023-05-24T12:17:56;8.73;;;5.27;;
7501;SDS011;3792;47.740;7.606;2023-05-24T12:20:23;12.60;;;5.80;;
7501;SDS011;3792;47.740;7.606;2023-05-24T12:22:53;9.23;;;5.27;;
7501;SDS011;3792;47.740;7.606;2023-05-24T12:25:21;10.27;;;5.00;;
7501;SDS011;3792;47.740;7.606;2023-05-24T12:27:52;12.17;;;5.83;;
7501;SDS011;3792;47.740;7.606;2023-05-24T12:30:21;12.50;;;5.70;;
7501;SDS011;3792;47.740;7.606;2023-05-24T12:32:49;12.47;;;5.50;;
7501;SDS011;3792;47.740;7.606;2023-05-24T12:35:18;12.90;;;5.50;;
7501;SDS011;3792;47.740;7.606;2023-05-24T12:37:46;9.77;;;5.30;;
7501;SDS011;3792;47.740;7.606;2023-05-24T12:40:14;10.80;;;4.97;;
7501;SDS011;3792;47.740;7.606;2023-05-24T12:42:44;9.83;;;4.83;;
7501;SDS011;3792;47.740;7.606;2023-05-24T12:45:15;11.83;;;5.20;;
7501;SDS011;3792;47.740;7.606;2023-05-24T12:47:47;9.40;;;5.73;;
7501;SDS011;3792;47.740;7.606;2023-05-24T12:50:16;8.50;;;5.10;;
7501;SDS011;3792;47.740;7.606;2023-05-24T12:52:44;8.73;;;5.43;;
7501;SDS011;3792;47.740;7.606;2023-05-24T12:55:12;12.03;;;5.13;;
7501;SDS011;3792;47.740;7.606;2023-05-24T12:57:41;15.13;;;5.30;;
7501;SDS011;3792;47.740;7.606;2023-05-24T13:00:09;12.20;;;5.37;;
7501;SDS011;3792;47.740;7.606;2023-05-24T13:02:40;12.63;;;5.53;;
7501;SDS011;3792;47.740;7.606;2023-05-24T13:05:12;13.37;;;6.00;;
7501;SDS011;3792;47.740;7.606;2023-05-24T13:07:43;9.10;;;5.17;;
7501;SDS011;3792;47.740;7.606;2023-05-24T13:10:11;10.73;;;5.37;;
7501;SDS011;3792;47.740;7.606;2023-05-24T13:12:38;10.73;;;5.73;;
7501;SDS011;3792;47.740;7.606;2023-05-24T13:15:08;17.43;;;5.50;;
7501;SDS011;3792;47.740;7.606;2023-05-24T13:17:37;8.67;;;5.37;;
7501;SDS011;3792;47.740;7.606;2023-05-24T13:20:06;12.70;;;5.67;;
7501;SDS011;3792;47.740;7.606;2023-05-24T13:22:36;9.00;;;5.20;;
7501;SDS011;3792;47.740;7.606;2023-05-24T13:25:04;14.93;;;5.77;;
7501;SDS011;3792;47.740;7.606;2023-05-24T13:27:33;11.57;;;5.43;;
7501;SDS011;3792;47.740;7.606;2023-05-24T13:30:01;10.90;;;5.13;;
7501;SDS011;3792;47.740;7.606;2023-05-24T13:32:28;14.27;;;6.73;;
7501;SDS011;3792;47.740;7.606;2023-05-24T13:34:58;11.10;;;5.53;;
7501;SDS011;3792;47.740;7.606;2023-05-24T13:37:26;12.63;;;5.47;;
7501;SDS011;3792;47.740;7.606;2023-05-24T13:39:54;7.97;;;4.93;;
7501;SDS011;3792;47.740;7.606;2023-05-24T13:42:21;12.50;;;5.60;;
7501;SDS011;3792;47.740;7.606;2023-05-24T13:44:48;10.00;;;6.20;;
7501;SDS011;3792;47.740;7.606;2023-05-24T13:47:15;11.67;;;5.50;;
7501;SDS011;3792;47.740;7.606;2023-05-24T13:49:43;11.97;;;5.33;;
7501;SDS011;3792;47.740;7.606;2023-05-24T13:52:12;11.23;;;5.40;;
7501;SDS011;3792;47.740;7.606;2023-05-24T13:54:39;10.13;;;5.20;;
7501;SDS011;3792;47.740;7.606;2023-05-24T13:57:06;9.60;;;5.20;;
7501;SDS011;3792;47.740;7.606;2023-05-24T13:59:33;9.43;;;4.93;;
7501;SDS011;3792;47.740;7.606;2023-05-24T14:02:00;11.90;;;5.30;;
7501;SDS011;3792;47.740;7.606;2023-05-24T14:04:27;7.63;;;5.00;;
7501;SDS011;3792;47.740;7.606;2023-05-24T14:06:55;12.77;;;5.30;;
7501;SDS011;3792;47.740;7.606;2023-05-24T14:09:24;11.17;;;5.73;;
7501;SDS011;3792;47.740;7.606;2023-05-24T14:11:51;11.63;;;5.20;;
7501;SDS011;3792;47.740;7.606;2023-05-24T14:14:18;7.80;;;4.83;;
7501;SDS011;3792;47.740;7.606;2023-05-24T14:16:45;9.57;;;5.27;;
7501;SDS011;3792;47.740;7.606;2023-05-24T14:19:17;8.30;;;5.07;;
7501;SDS011;3792;47.740;7.606;2023-05-24T14:21:45;7.17;;;4.87;;
7501;SDS011;3792;47.740;7.606;2023-05-24T14:24:13;11.77;;;5.63;;
7501;SDS011;3792;47.740;7.606;2023-05-24T14:26:42;7.20;;;4.57;;
7501;SDS011;3792;47.740;7.606;2023-05-24T14:29:11;9.53;;;4.43;;
7501;SDS011;3792;47.740;7.606;2023-05-24T14:31:38;7.90;;;4.63;;
7501;SDS011;3792;47.740;7.606;2023-05-24T14:34:07;9.50;;;4.97;;
7501;SDS011;3792;47.740;7.606;2023-05-24T14:36:35;11.27;;;5.03;;
7501;SDS011;3792;47.740;7.606;2023-05-24T14:39:04;9.40;;;4.60;;
7501;SDS011;3792;47.740;7.606;2023-05-24T14:41:31;7.23;;;5.00;;
7501;SDS011;3792;47.740;7.606;2023-05-24T14:44:00;7.37;;;4.73;;
7501;SDS011;3792;47.740;7.606;2023-05-24T14:46:27;9.10;;;4.80;;
7501;SDS011;3792;47.740;7.606;2023-05-24T14:48:54;10.57;;;4.97;;
7501;SDS011;3792;47.740;7.606;2023-05-24T14:51:21;11.70;;;5.13;;
7501;SDS011;3792;47.740;7.606;2023-05-24T14:53:49;8.90;;;4.87;;
7501;SDS011;3792;47.740;7.606;2023-05-24T14:56:16;9.53;;;5.23;;
7501;SDS011;3792;47.740;7.606;2023-05-24T14:58:43;7.37;;;4.87;;
7501;SDS011;3792;47.740;7.606;2023-05-24T15:01:12;11.07;;;5.33;;
7501;SDS011;3792;47.740;7.606;2023-05-24T15:03:39;12.50;;;4.90;;
7501;SDS011;3792;47.740;7.606;2023-05-24T15:06:06;7.90;;;4.43;;
7501;SDS011;3792;47.740;7.606;2023-05-24T15:08:33;10.90;;;5.43;;
7501;SDS011;3792;47.740;7.606;2023-05-24T15:11:00;9.33;;;5.07;;
7501;SDS011;3792;47.740;7.606;2023-05-24T15:13:27;9.80;;;4.47;;
7501;SDS011;3792;47.740;7.606;2023-05-24T15:15:55;6.47;;;4.10;;
7501;SDS011;3792;47.740;7.606;2023-05-24T15:18:25;8.30;;;4.17;;